sensor_id;sensor_type;location;lat;lon;timestamp;pressure;altitude;pressure_sealevel;temperature;humidity
65227;BME280;51805;49.012;12.104;2024-02-26T00:01:12;96233.38;;;22.05;47.64
65227;BME280;51805;49.012;12.104;2024-02-26T00:03:38;96231.75;;;22.04;47.67
65227;BME280;51805;49.012;12.104;2024-02-26T00:06:03;96224.78;;;22.03;47.59
65227;BME280;51805;49.012;12.104;2024-02-26T00:08:28;96216.16;;;22.01;47.48
65227;BME280;51805;49.012;12.104;2024-02-26T00:10:54;96213.16;;;22.03;47.65
65227;BME280;51805;49.012;12.104;2024-02-26T00:13:19;96207.72;;;22.03;47.69
65227;BME280;51805;49.012;12.104;2024-02-26T00:15:44;96207.91;;;22.06;47.60
65227;BME280;51805;49.012;12.104;2024-02-26T00:18:09;96218.56;;;22.03;47.62
65227;BME280;51805;49.012;12.104;2024-02-26T00:20:35;96212.38;;;22.02;47.51
65227;BME280;51805;49.012;12.104;2024-02-26T00:23:00;96220.94;;;22.04;47.62
65227;BME280;51805;49.012;12.104;2024-02-26T00:25:25;96213.78;;;22.00;47.58
65227;BME280;51805;49.012;12.104;2024-02-26T00:27:50;96212.53;;;21.97;47.66
65227;BME280;51805;49.012;12.104;2024-02-26T00:30:16;96212.03;;;21.95;47.92
65227;BME280;51805;49.012;12.104;2024-02-26T00:32:41;96206.97;;;22.02;47.57
65227;BME280;51805;49.012;12.104;2024-02-26T00:35:07;96202.78;;;21.96;47.72
65227;BME280;51805;49.012;12.104;2024-02-26T00:37:32;96211.22;;;21.95;47.95
65227;BME280;51805;49.012;12.104;2024-02-26T00:39:57;96209.19;;;22.00;47.62
65227;BME280;51805;49.012;12.104;2024-02-26T00:42:23;96210.44;;;21.94;47.73
65227;BME280;51805;49.012;12.104;2024-02-26T00:44:48;96206.78;;;21.99;47.63
65227;BME280;51805;49.012;12.104;2024-02-26T00:47:13;96207.44;;;21.96;47.61
65227;BME280;51805;49.012;12.104;2024-02-26T00:49:38;96206.94;;;21.94;47.83
65227;BME280;51805;49.012;12.104;2024-02-26T00:52:04;96208.06;;;21.93;47.88
65227;BME280;51805;49.012;12.104;2024-02-26T00:54:29;96202.47;;;21.89;47.79
65227;BME280;51805;49.012;12.104;2024-02-26T00:56:54;96195.50;;;21.88;47.83
65227;BME280;51805;49.012;12.104;2024-02-26T00:59:20;96195.94;;;21.90;48.00
65227;BME280;51805;49.012;12.104;2024-02-26T01:01:45;96196.44;;;21.92;47.81
65227;BME280;51805;49.012;12.104;2024-02-26T01:04:10;96193.25;;;21.90;47.93
65227;BME280;51805;49.012;12.104;2024-02-26T01:06:36;96200.25;;;21.91;47.78
65227;BME280;51805;49.012;12.104;2024-02-26T01:09:01;96192.31;;;21.86;47.81
65227;BME280;51805;49.012;12.104;2024-02-26T01:11:26;96202.00;;;21.87;47.81
65227;BME280;51805;49.012;12.104;2024-02-26T01:13:51;96196.75;;;21.82;48.02
65227;BME280;51805;49.012;12.104;2024-02-26T01:16:17;96200.09;;;21.88;47.90
65227;BME280;51805;49.012;12.104;2024-02-26T01:18:42;96192.31;;;21.86;47.85
65227;BME280;51805;49.012;12.104;2024-02-26T01:21:07;96195.16;;;21.81;48.08
65227;BME280;51805;49.012;12.104;2024-02-26T01:23:32;96199.16;;;21.84;47.88
65227;BME280;51805;49.012;12.104;2024-02-26T01:25:58;96194.06;;;21.82;47.80
65227;BME280;51805;49.012;12.104;2024-02-26T01:28:23;96194.69;;;21.79;48.03
65227;BME280;51805;49.012;12.104;2024-02-26T01:30:48;96193.88;;;21.79;48.15
65227;BME280;51805;49.012;12.104;2024-02-26T01:33:14;96191.66;;;21.81;47.95
65227;BME280;51805;49.012;12.104;2024-02-26T01:35:39;96195.16;;;21.81;48.00
65227;BME280;51805;49.012;12.104;2024-02-26T01:38:04;96194.19;;;21.77;48.13
65227;BME280;51805;49.012;12.104;2024-02-26T01:40:29;96186.69;;;21.74;47.90
65227;BME280;51805;49.012;12.104;2024-02-26T01:42:55;96185.78;;;21.79;48.05
65227;BME280;51805;49.012;12.104;2024-02-26T01:45:20;96193.72;;;21.75;48.11
65227;BME280;51805;49.012;12.104;2024-02-26T01:47:46;96199.22;;;21.70;48.10
65227;BME280;51805;49.012;12.104;2024-02-26T01:50:11;96205.94;;;21.73;48.16
65227;BME280;51805;49.012;12.104;2024-02-26T01:52:36;96212.13;;;21.73;48.10
65227;BME280;51805;49.012;12.104;2024-02-26T01:55:02;96213.25;;;21.72;48.04
65227;BME280;51805;49.012;12.104;2024-02-26T01:57:28;96207.84;;;21.72;48.08
65227;BME280;51805;49.012;12.104;2024-02-26T01:59:53;96202.56;;;21.67;48.20
65227;BME280;51805;49.012;12.104;2024-02-26T02:02:19;96191.31;;;21.65;48.17
65227;BME280;51805;49.012;12.104;2024-02-26T02:04:44;96201.00;;;21.66;48.10
65227;BME280;51805;49.012;12.104;2024-02-26T02:07:10;96195.09;;;21.64;48.26
65227;BME280;51805;49.012;12.104;2024-02-26T02:09:36;96199.88;;;21.67;48.17
65227;BME280;51805;49.012;12.104;2024-02-26T02:12:01;96200.19;;;21.66;48.19
65227;BME280;51805;49.012;12.104;2024-02-26T02:14:26;96194.00;;;21.65;48.21
65227;BME280;51805;49.012;12.104;2024-02-26T02:16:52;96190.50;;;21.65;48.27
65227;BME280;51805;49.012;12.104;2024-02-26T02:19:17;96191.13;;;21.62;48.28
65227;BME280;51805;49.012;12.104;2024-02-26T02:21:42;96190.50;;;21.65;48.22
65227;BME280;51805;49.012;12.104;2024-02-26T02:24:08;96184.91;;;21.61;48.22
65227;BME280;51805;49.012;12.104;2024-02-26T02:26:33;96186.53;;;21.62;48.32
65227;BME280;51805;49.012;12.104;2024-02-26T02:28:59;96185.41;;;21.63;48.21
65227;BME280;51805;49.012;12.104;2024-02-26T02:31:25;96182.69;;;21.63;48.14
65227;BME280;51805;49.012;12.104;2024-02-26T02:33:51;96187.16;;;21.59;48.29
65227;BME280;51805;49.012;12.104;2024-02-26T02:36:16;96178.25;;;21.59;48.24
65227;BME280;51805;49.012;12.104;2024-02-26T02:38:51;96180.13;;;21.58;48.22
65227;BME280;51805;49.012;12.104;2024-02-26T02:41:16;96177.75;;;21.57;48.22
65227;BME280;51805;49.012;12.104;2024-02-26T02:43:42;96168.69;;;21.53;48.62
65227;BME280;51805;49.012;12.104;2024-02-26T02:46:07;96171.09;;;21.54;48.26
65227;BME280;51805;49.012;12.104;2024-02-26T02:48:32;96172.66;;;21.55;48.40
65227;BME280;51805;49.012;12.104;2024-02-26T02:50:58;96171.09;;;21.54;48.58
65227;BME280;51805;49.012;12.104;2024-02-26T02:53:23;96172.66;;;21.55;48.71
65227;BME280;51805;49.012;12.104;2024-02-26T02:55:48;96167.56;;;21.54;48.71
65227;BME280;51805;49.012;12.104;2024-02-26T02:58:14;96173.78;;;21.54;48.96
65227;BME280;51805;49.012;12.104;2024-02-26T03:00:39;96166.78;;;21.53;48.85
65227;BME280;51805;49.012;12.104;2024-02-26T03:03:04;96167.91;;;21.52;48.69
65227;BME280;51805;49.012;12.104;2024-02-26T03:05:30;96177.13;;;21.51;48.71
65227;BME280;51805;49.012;12.104;2024-02-26T03:07:55;96166.31;;;21.51;48.80
65227;BME280;51805;49.012;12.104;2024-02-26T03:10:20;96181.72;;;21.51;48.66
65227;BME280;51805;49.012;12.104;2024-02-26T03:12:45;96175.06;;;21.48;48.73
65227;BME280;51805;49.012;12.104;2024-02-26T03:15:11;96178.22;;;21.50;48.76
65227;BME280;51805;49.012;12.104;2024-02-26T03:17:36;96183.16;;;21.48;48.61
65227;BME280;51805;49.012;12.104;2024-02-26T03:20:01;96172.81;;;21.50;48.68
65227;BME280;51805;49.012;12.104;2024-02-26T03:22:27;96184.25;;;21.47;48.65
65227;BME280;51805;49.012;12.104;2024-02-26T03:24:52;96181.88;;;21.45;48.63
65227;BME280;51805;49.012;12.104;2024-02-26T03:27:17;96178.84;;;21.47;48.72
65227;BME280;51805;49.012;12.104;2024-02-26T03:29:43;96177.25;;;21.46;48.72
65227;BME280;51805;49.012;12.104;2024-02-26T03:32:08;96166.44;;;21.46;48.69
65227;BME280;51805;49.012;12.104;2024-02-26T03:34:33;96174.88;;;21.44;48.73
65227;BME280;51805;49.012;12.104;2024-02-26T03:36:59;96169.78;;;21.43;48.70
65227;BME280;51805;49.012;12.104;2024-02-26T03:39:24;96176.00;;;21.43;48.73
65227;BME280;51805;49.012;12.104;2024-02-26T03:41:49;96176.78;;;21.44;48.68
65227;BME280;51805;49.012;12.104;2024-02-26T03:44:14;96179.47;;;21.44;48.67
65227;BME280;51805;49.012;12.104;2024-02-26T03:46:40;96180.59;;;21.43;48.66
65227;BME280;51805;49.012;12.104;2024-02-26T03:49:05;96180.09;;;21.41;48.71
65227;BME280;51805;49.012;12.104;2024-02-26T03:51:30;96176.94;;;21.39;48.70
65227;BME280;51805;49.012;12.104;2024-02-26T03:53:56;96165.81;;;21.40;48.77
65227;BME280;51805;49.012;12.104;2024-02-26T03:56:21;96166.59;;;21.41;48.64
65227;BME280;51805;49.012;12.104;2024-02-26T03:58:46;96167.72;;;21.40;48.71
65227;BME280;51805;49.012;12.104;2024-02-26T04:01:12;96156.59;;;21.41;48.57
65227;BME280;51805;49.012;12.104;2024-02-26T04:03:37;96165.81;;;21.40;48.80
65227;BME280;51805;49.012;12.104;2024-02-26T04:06:02;96157.22;;;21.38;48.57
65227;BME280;51805;49.012;12.104;2024-02-26T04:08:28;96154.53;;;21.38;48.70
65227;BME280;51805;49.012;12.104;2024-02-26T04:10:53;96155.63;;;21.37;48.70
65227;BME280;51805;49.012;12.104;2024-02-26T04:13:19;96157.53;;;21.37;48.83
65227;BME280;51805;49.012;12.104;2024-02-26T04:15:44;96165.16;;;21.35;48.76
65227;BME280;51805;49.012;12.104;2024-02-26T04:18:10;96159.75;;;21.35;48.68
65227;BME280;51805;49.012;12.104;2024-02-26T04:20:35;96162.44;;;21.35;48.62
65227;BME280;51805;49.012;12.104;2024-02-26T04:23:00;96151.16;;;21.33;48.69
65227;BME280;51805;49.012;12.104;2024-02-26T04:25:26;96160.56;;;21.35;48.66
65227;BME280;51805;49.012;12.104;2024-02-26T04:27:51;96161.97;;;21.33;48.59
65227;BME280;51805;49.012;12.104;2024-02-26T04:30:16;96175.00;;;21.31;48.70
65227;BME280;51805;49.012;12.104;2024-02-26T04:32:42;96183.56;;;21.33;48.68
65227;BME280;51805;49.012;12.104;2024-02-26T04:35:07;96177.41;;;21.32;48.70
65227;BME280;51805;49.012;12.104;2024-02-26T04:37:32;96174.19;;;21.30;48.67
65227;BME280;51805;49.012;12.104;2024-02-26T04:40:01;96172.00;;;21.32;48.49
65227;BME280;51805;49.012;12.104;2024-02-26T04:42:27;96167.41;;;21.50;48.40
65227;BME280;51805;49.012;12.104;2024-02-26T04:44:53;96166.44;;;21.55;48.36
65227;BME280;51805;49.012;12.104;2024-02-26T04:47:19;96166.31;;;21.60;48.33
65227;BME280;51805;49.012;12.104;2024-02-26T04:49:44;96170.63;;;21.61;48.34
65227;BME280;51805;49.012;12.104;2024-02-26T04:52:09;96174.59;;;21.63;48.02
65227;BME280;51805;49.012;12.104;2024-02-26T04:54:35;96178.88;;;21.64;48.31
65227;BME280;51805;49.012;12.104;2024-02-26T04:57:00;96174.59;;;21.63;48.30
65227;BME280;51805;49.012;12.104;2024-02-26T04:59:25;96172.69;;;21.64;48.24
65227;BME280;51805;49.012;12.104;2024-02-26T05:01:50;96164.28;;;21.65;48.14
65227;BME280;51805;49.012;12.104;2024-02-26T05:04:16;96178.25;;;21.67;48.27
65227;BME280;51805;49.012;12.104;2024-02-26T05:06:41;96180.94;;;21.67;48.19
65227;BME280;51805;49.012;12.104;2024-02-26T05:09:06;96183.66;;;21.67;48.22
65227;BME280;51805;49.012;12.104;2024-02-26T05:11:32;96184.47;;;21.68;48.16
65227;BME280;51805;49.012;12.104;2024-02-26T05:13:57;96181.44;;;21.69;48.22
65227;BME280;51805;49.012;12.104;2024-02-26T05:16:22;96189.22;;;21.71;48.22
65227;BME280;51805;49.012;12.104;2024-02-26T05:18:47;96192.41;;;21.73;48.07
65227;BME280;51805;49.012;12.104;2024-02-26T05:21:13;96197.03;;;21.72;48.32
65227;BME280;51805;49.012;12.104;2024-02-26T05:23:38;96197.03;;;21.72;48.39
65227;BME280;51805;49.012;12.104;2024-02-26T05:26:03;96195.44;;;21.71;48.43
65227;BME280;51805;49.012;12.104;2024-02-26T05:28:28;96199.72;;;21.72;48.31
65227;BME280;51805;49.012;12.104;2024-02-26T05:30:54;96204.50;;;21.67;48.29
65227;BME280;51805;49.012;12.104;2024-02-26T05:33:19;96197.81;;;21.64;48.43
65227;BME280;51805;49.012;12.104;2024-02-26T05:35:44;96201.47;;;21.68;48.47
65227;BME280;51805;49.012;12.104;2024-02-26T05:38:10;96197.16;;;21.67;48.37
65227;BME280;51805;49.012;12.104;2024-02-26T05:40:35;96200.69;;;21.68;48.49
65227;BME280;51805;49.012;12.104;2024-02-26T05:43:00;96198.78;;;21.68;48.60
65227;BME280;51805;49.012;12.104;2024-02-26T05:45:26;96198.91;;;21.72;48.49
65227;BME280;51805;49.012;12.104;2024-02-26T05:47:51;96191.13;;;21.70;48.58
65227;BME280;51805;49.012;12.104;2024-02-26T05:50:16;96201.03;;;21.75;48.38
65227;BME280;51805;49.012;12.104;2024-02-26T05:52:42;96201.31;;;21.73;48.33
65227;BME280;51805;49.012;12.104;2024-02-26T05:55:08;96200.22;;;21.74;48.44
65227;BME280;51805;49.012;12.104;2024-02-26T05:57:34;96201.03;;;21.75;48.33
65227;BME280;51805;49.012;12.104;2024-02-26T05:59:59;96207.72;;;21.77;48.49
65227;BME280;51805;49.012;12.104;2024-02-26T06:02:25;96208.66;;;21.81;48.45
65227;BME280;51805;49.012;12.104;2024-02-26T06:04:50;96214.41;;;21.80;48.54
65227;BME280;51805;49.012;12.104;2024-02-26T06:07:15;96206.78;;;21.82;48.39
65227;BME280;51805;49.012;12.104;2024-02-26T06:09:41;96199.63;;;21.77;48.63
65227;BME280;51805;49.012;12.104;2024-02-26T06:12:06;96205.03;;;21.77;48.59
65227;BME280;51805;49.012;12.104;2024-02-26T06:14:32;96201.94;;;21.70;48.59
65227;BME280;51805;49.012;12.104;2024-02-26T06:16:57;96200.84;;;21.71;48.56
65227;BME280;51805;49.012;12.104;2024-02-26T06:19:22;96200.84;;;21.71;48.45
65227;BME280;51805;49.012;12.104;2024-02-26T06:21:47;96203.22;;;21.73;48.73
65227;BME280;51805;49.012;12.104;2024-02-26T06:24:13;96205.66;;;21.83;48.38
65227;BME280;51805;49.012;12.104;2024-02-26T06:26:38;96210.59;;;21.89;48.25
65227;BME280;51805;49.012;12.104;2024-02-26T06:29:03;96210.28;;;21.91;48.41
65227;BME280;51805;49.012;12.104;2024-02-26T06:31:29;96209.97;;;21.92;48.38
65227;BME280;51805;49.012;12.104;2024-02-26T06:33:54;96217.44;;;21.95;48.45
65227;BME280;51805;49.012;12.104;2024-02-26T06:36:19;96223.34;;;21.97;48.40
65227;BME280;51805;49.012;12.104;2024-02-26T06:38:44;96224.44;;;21.96;48.38
65227;BME280;51805;49.012;12.104;2024-02-26T06:41:10;96230.00;;;22.00;48.41
65227;BME280;51805;49.012;12.104;2024-02-26T06:43:35;96232.41;;;22.01;48.41
65227;BME280;51805;49.012;12.104;2024-02-26T06:46:00;96231.31;;;22.02;48.33
65227;BME280;51805;49.012;12.104;2024-02-26T06:48:25;96231.75;;;22.04;48.44
65227;BME280;51805;49.012;12.104;2024-02-26T06:50:51;96233.38;;;22.05;48.30
65227;BME280;51805;49.012;12.104;2024-02-26T06:53:16;96226.34;;;22.04;48.44
65227;BME280;51805;49.012;12.104;2024-02-26T06:55:42;96243.25;;;22.10;48.45
65227;BME280;51805;49.012;12.104;2024-02-26T06:58:08;96256.44;;;22.11;48.42
65227;BME280;51805;49.012;12.104;2024-02-26T07:00:33;96270.44;;;22.13;48.40
65227;BME280;51805;49.012;12.104;2024-02-26T07:02:59;96264.69;;;22.15;48.30
65227;BME280;51805;49.012;12.104;2024-02-26T07:05:24;96266.78;;;22.18;48.40
65227;BME280;51805;49.012;12.104;2024-02-26T07:07:49;96269.47;;;22.18;48.36
65227;BME280;51805;49.012;12.104;2024-02-26T07:10:15;96276.69;;;22.22;48.49
65227;BME280;51805;49.012;12.104;2024-02-26T07:12:40;96276.03;;;22.25;48.26
65227;BME280;51805;49.012;12.104;2024-02-26T07:15:05;96273.78;;;22.27;48.53
65227;BME280;51805;49.012;12.104;2024-02-26T07:17:31;96273.16;;;22.30;48.52
65227;BME280;51805;49.012;12.104;2024-02-26T07:19:57;96275.53;;;22.32;48.52
65227;BME280;51805;49.012;12.104;2024-02-26T07:22:22;96269.81;;;22.33;48.52
65227;BME280;51805;49.012;12.104;2024-02-26T07:24:47;96270.28;;;22.35;48.39
65227;BME280;51805;49.012;12.104;2024-02-26T07:27:12;96273.50;;;22.37;48.42
65227;BME280;51805;49.012;12.104;2024-02-26T07:29:38;96277.28;;;22.36;48.59
65227;BME280;51805;49.012;12.104;2024-02-26T07:32:03;96276.19;;;22.37;48.43
65227;BME280;51805;49.012;12.104;2024-02-26T07:34:29;96287.50;;;22.39;48.30
65227;BME280;51805;49.012;12.104;2024-02-26T07:36:55;96282.22;;;22.43;48.53
65227;BME280;51805;49.012;12.104;2024-02-26T07:39:20;96287.00;;;22.46;48.47
65227;BME280;51805;49.012;12.104;2024-02-26T07:41:46;96285.59;;;22.48;48.60
65227;BME280;51805;49.012;12.104;2024-02-26T07:44:11;96288.31;;;22.48;48.65
65227;BME280;51805;49.012;12.104;2024-02-26T07:46:36;96292.59;;;22.49;48.71
65227;BME280;51805;49.012;12.104;2024-02-26T07:49:01;96288.75;;;22.50;48.51
65227;BME280;51805;49.012;12.104;2024-02-26T07:51:27;96291.97;;;22.52;48.64
65227;BME280;51805;49.012;12.104;2024-02-26T07:53:52;96295.19;;;22.54;48.52
65227;BME280;51805;49.012;12.104;2024-02-26T07:56:17;96299.47;;;22.55;48.57
65227;BME280;51805;49.012;12.104;2024-02-26T07:58:43;96307.44;;;22.60;48.56
65227;BME280;51805;49.012;12.104;2024-02-26T08:01:08;96306.31;;;22.61;48.56
65227;BME280;51805;49.012;12.104;2024-02-26T08:03:33;96307.59;;;22.64;48.41
65227;BME280;51805;49.012;12.104;2024-02-26T08:05:58;96297.53;;;22.64;48.33
65227;BME280;51805;49.012;12.104;2024-02-26T08:08:24;96295.00;;;22.68;48.46
65227;BME280;51805;49.012;12.104;2024-02-26T08:10:49;96293.22;;;22.72;48.19
65227;BME280;51805;49.012;12.104;2024-02-26T08:13:14;96300.25;;;22.73;48.34
65227;BME280;51805;49.012;12.104;2024-02-26T08:15:39;96295.63;;;22.73;48.48
65227;BME280;51805;49.012;12.104;2024-02-26T08:18:05;96306.94;;;22.75;48.36
65227;BME280;51805;49.012;12.104;2024-02-26T08:20:31;96302.00;;;22.77;48.59
65227;BME280;51805;49.012;12.104;2024-02-26T08:22:56;96307.88;;;22.79;48.40
65227;BME280;51805;49.012;12.104;2024-02-26T08:25:22;96296.44;;;22.82;48.72
65227;BME280;51805;49.012;12.104;2024-02-26T08:27:48;96289.09;;;22.83;48.46
65227;BME280;51805;49.012;12.104;2024-02-26T08:30:14;96294.66;;;22.86;48.54
65227;BME280;51805;49.012;12.104;2024-02-26T08:32:40;96294.34;;;22.88;48.41
65227;BME280;51805;49.012;12.104;2024-02-26T08:35:05;96304.84;;;22.89;48.45
65227;BME280;51805;49.012;12.104;2024-02-26T08:37:31;96302.16;;;22.89;48.41
65227;BME280;51805;49.012;12.104;2024-02-26T08:39:56;96299.91;;;22.91;48.57
65227;BME280;51805;49.012;12.104;2024-02-26T08:42:22;96304.69;;;22.94;48.46
65227;BME280;51805;49.012;12.104;2024-02-26T08:44:47;96309.16;;;22.99;48.46
65227;BME280;51805;49.012;12.104;2024-02-26T08:47:12;96301.03;;;22.99;48.44
65227;BME280;51805;49.012;12.104;2024-02-26T08:49:42;96305.00;;;23.01;48.42
65227;BME280;51805;49.012;12.104;2024-02-26T08:52:08;96301.19;;;23.02;48.50
65227;BME280;51805;49.012;12.104;2024-02-26T08:54:33;96305.00;;;23.01;48.61
65227;BME280;51805;49.012;12.104;2024-02-26T08:56:58;96312.00;;;23.02;48.53
65227;BME280;51805;49.012;12.104;2024-02-26T08:59:23;96315.50;;;23.03;48.54
65227;BME280;51805;49.012;12.104;2024-02-26T09:01:49;96316.31;;;23.03;48.56
65227;BME280;51805;49.012;12.104;2024-02-26T09:04:14;96313.59;;;23.03;48.72
65227;BME280;51805;49.012;12.104;2024-02-26T09:06:39;96308.19;;;23.03;48.63
65227;BME280;51805;49.012;12.104;2024-02-26T09:09:05;96305.78;;;23.02;48.62
65227;BME280;51805;49.012;12.104;2024-02-26T09:11:30;96307.22;;;22.99;48.73
65227;BME280;51805;49.012;12.104;2024-02-26T09:13:55;96313.13;;;23.01;48.61
65227;BME280;51805;49.012;12.104;2024-02-26T09:16:20;96317.44;;;23.02;48.67
65227;BME280;51805;49.012;12.104;2024-02-26T09:18:46;96315.81;;;23.01;48.78
65227;BME280;51805;49.012;12.104;2024-02-26T09:21:11;96320.59;;;23.04;48.75
65227;BME280;51805;49.012;12.104;2024-02-26T09:23:36;96319.03;;;23.03;48.74
65227;BME280;51805;49.012;12.104;2024-02-26T09:26:02;96318.69;;;23.05;48.81
65227;BME280;51805;49.012;12.104;2024-02-26T09:28:27;96302.75;;;23.03;48.80
65227;BME280;51805;49.012;12.104;2024-02-26T09:30:52;96315.19;;;23.04;48.86
65227;BME280;51805;49.012;12.104;2024-02-26T09:33:17;96308.97;;;23.04;48.85
65227;BME280;51805;49.012;12.104;2024-02-26T09:35:43;96315.97;;;23.05;48.85
65227;BME280;51805;49.012;12.104;2024-02-26T09:38:08;96313.59;;;23.03;48.91
65227;BME280;51805;49.012;12.104;2024-02-26T09:40:33;96320.59;;;23.04;48.82
65227;BME280;51805;49.012;12.104;2024-02-26T09:43:00;96332.25;;;23.05;48.79
65227;BME280;51805;49.012;12.104;2024-02-26T09:45:26;96331.13;;;23.06;48.85
65227;BME280;51805;49.012;12.104;2024-02-26T09:47:55;96322.66;;;23.08;48.85
65227;BME280;51805;49.012;12.104;2024-02-26T09:50:21;96326.19;;;23.08;48.85
65227;BME280;51805;49.012;12.104;2024-02-26T09:52:46;96321.56;;;23.09;48.96
65227;BME280;51805;49.012;12.104;2024-02-26T09:55:12;96316.47;;;23.07;48.98
65227;BME280;51805;49.012;12.104;2024-02-26T09:57:37;96313.75;;;23.07;48.95
65227;BME280;51805;49.012;12.104;2024-02-26T10:00:03;96311.06;;;23.07;48.76
65227;BME280;51805;49.012;12.104;2024-02-26T10:02:30;96304.81;;;23.07;48.98
65227;BME280;51805;49.012;12.104;2024-02-26T10:04:57;96306.41;;;23.08;48.90
65227;BME280;51805;49.012;12.104;2024-02-26T10:07:24;96306.41;;;23.08;48.98
65227;BME280;51805;49.012;12.104;2024-02-26T10:09:49;96318.38;;;23.07;49.00
65227;BME280;51805;49.012;12.104;2024-02-26T10:12:16;96317.25;;;23.08;49.05
65227;BME280;51805;49.012;12.104;2024-02-26T10:14:41;96315.34;;;23.08;48.91
65227;BME280;51805;49.012;12.104;2024-02-26T10:17:10;96312.16;;;23.06;48.90
65227;BME280;51805;49.012;12.104;2024-02-26T10:19:35;96320.13;;;23.11;48.93
65227;BME280;51805;49.012;12.104;2024-02-26T10:22:01;96312.31;;;23.10;49.05
65227;BME280;51805;49.012;12.104;2024-02-26T10:24:28;96321.69;;;23.12;49.05
65227;BME280;51805;49.012;12.104;2024-02-26T10:26:57;96323.63;;;23.12;48.96
65227;BME280;51805;49.012;12.104;2024-02-26T10:29:24;96327.44;;;23.11;49.01
65227;BME280;51805;49.012;12.104;2024-02-26T10:31:51;96330.16;;;23.11;49.11
65227;BME280;51805;49.012;12.104;2024-02-26T10:34:16;96330.94;;;23.11;49.01
65227;BME280;51805;49.012;12.104;2024-02-26T10:36:42;96325.84;;;23.10;49.08
65227;BME280;51805;49.012;12.104;2024-02-26T10:39:07;96324.72;;;23.11;49.12
65227;BME280;51805;49.012;12.104;2024-02-26T10:41:33;96313.88;;;23.11;49.09
65227;BME280;51805;49.012;12.104;2024-02-26T10:43:58;96315.50;;;23.12;49.13
65227;BME280;51805;49.012;12.104;2024-02-26T10:46:25;96310.06;;;23.12;49.08
65227;BME280;51805;49.012;12.104;2024-02-26T10:48:51;96315.50;;;23.12;49.19
65227;BME280;51805;49.012;12.104;2024-02-26T10:51:21;96310.84;;;23.12;49.12
65227;BME280;51805;49.012;12.104;2024-02-26T10:53:51;96324.41;;;23.12;49.22
65227;BME280;51805;49.012;12.104;2024-02-26T10:56:20;96321.38;;;23.14;49.08
65227;BME280;51805;49.012;12.104;2024-02-26T10:58:49;96324.09;;;23.14;49.24
65227;BME280;51805;49.012;12.104;2024-02-26T11:01:14;96330.63;;;23.13;49.29
65227;BME280;51805;49.012;12.104;2024-02-26T11:03:40;96328.25;;;23.11;49.31
65227;BME280;51805;49.012;12.104;2024-02-26T11:06:06;96332.41;;;23.09;49.32
65227;BME280;51805;49.012;12.104;2024-02-26T11:08:32;96328.56;;;23.10;49.20
65227;BME280;51805;49.012;12.104;2024-02-26T11:10:57;96337.81;;;23.09;49.30
65227;BME280;51805;49.012;12.104;2024-02-26T11:13:27;96329.69;;;23.09;49.19
65227;BME280;51805;49.012;12.104;2024-02-26T11:15:54;96328.09;;;23.08;49.35
65227;BME280;51805;49.012;12.104;2024-02-26T11:18:20;96328.41;;;23.06;49.23
65227;BME280;51805;49.012;12.104;2024-02-26T11:20:48;96322.22;;;23.06;49.09
65227;BME280;51805;49.012;12.104;2024-02-26T11:23:13;96316.78;;;23.06;49.18
65227;BME280;51805;49.012;12.104;2024-02-26T11:25:38;96317.56;;;23.06;49.23
65227;BME280;51805;49.012;12.104;2024-02-26T11:28:06;96322.84;;;23.02;49.29
65227;BME280;51805;49.012;12.104;2024-02-26T11:30:36;96309.91;;;22.99;49.09
65227;BME280;51805;49.012;12.104;2024-02-26T11:33:03;96313.59;;;23.03;49.23
65227;BME280;51805;49.012;12.104;2024-02-26T11:35:29;96316.31;;;23.03;49.13
65227;BME280;51805;49.012;12.104;2024-02-26T11:37:55;96306.59;;;23.02;49.24
65227;BME280;51805;49.012;12.104;2024-02-26T11:40:23;96304.22;;;23.01;49.10
65227;BME280;51805;49.012;12.104;2024-02-26T11:42:49;96301.78;;;22.99;48.95
65227;BME280;51805;49.012;12.104;2024-02-26T11:48:28;96305.63;;;22.98;49.20
65227;BME280;51805;49.012;12.104;2024-02-26T11:50:52;96305.16;;;22.96;49.14
65227;BME280;51805;49.012;12.104;2024-02-26T11:53:29;96309.63;;;23.01;49.18
65227;BME280;51805;49.012;12.104;2024-02-26T11:58:45;96311.69;;;23.04;49.12
65227;BME280;51805;49.012;12.104;2024-02-26T12:01:45;96313.59;;;23.03;49.07
65227;BME280;51805;49.012;12.104;2024-02-26T12:04:13;96315.97;;;23.05;48.95
65227;BME280;51805;49.012;12.104;2024-02-26T12:06:50;96311.38;;;23.06;49.27
65227;BME280;51805;49.012;12.104;2024-02-26T12:09:38;96317.25;;;23.08;49.13
65227;BME280;51805;49.012;12.104;2024-02-26T12:12:06;96316.16;;;23.09;49.18
65227;BME280;51805;49.012;12.104;2024-02-26T12:14:50;96316.16;;;23.09;49.36
65227;BME280;51805;49.012;12.104;2024-02-26T12:17:23;96322.34;;;23.09;49.10
65227;BME280;51805;49.012;12.104;2024-02-26T12:19:49;96314.69;;;23.11;49.35
65227;BME280;51805;49.012;12.104;2024-02-26T12:22:15;96318.53;;;23.10;49.18
65227;BME280;51805;49.012;12.104;2024-02-26T12:24:40;96327.44;;;23.11;49.27
65227;BME280;51805;49.012;12.104;2024-02-26T12:27:05;96329.03;;;23.12;49.28
65227;BME280;51805;49.012;12.104;2024-02-26T12:29:31;96330.16;;;23.11;49.29
65227;BME280;51805;49.012;12.104;2024-02-26T12:31:56;96324.72;;;23.11;49.39
65227;BME280;51805;49.012;12.104;2024-02-26T12:34:21;96337.19;;;23.12;49.33
65227;BME280;51805;49.012;12.104;2024-02-26T12:36:46;96337.19;;;23.12;49.37
65227;BME280;51805;49.012;12.104;2024-02-26T12:39:12;96336.38;;;23.11;49.43
65227;BME280;51805;49.012;12.104;2024-02-26T12:41:38;96342.59;;;23.12;49.42
65227;BME280;51805;49.012;12.104;2024-02-26T12:44:04;96339.09;;;23.11;49.42
65227;BME280;51805;49.012;12.104;2024-02-26T12:46:29;96336.03;;;23.13;49.39
65227;BME280;51805;49.012;12.104;2024-02-26T12:48:58;96334.47;;;23.12;49.52